Time;durP1;ratioP1;P1;durP2;ratioP2;P2;SDS_P1;SDS_P2;PMS_P1;PMS_P2;Temp;Humidity;BMP_temperature;BMP_pressure;BME280_temperature;BME280_humidity;BME280_pressure;Samples;Min_cycle;Max_cycle;Signal;HPM_P1;HPM_P2
2021/01/19 00:00:06;;;;;;;74.53;30.83;;;;;;;-3.91;81.09;100159.53;5093594;28;20074;-71
2021/01/19 00:02:41;;;;;;;68.38;28.83;;;;;;;-3.97;81.29;100160.78;5093601;28;20515;-71
2021/01/19 00:05:10;;;;;;;74.05;27.85;;;;;;;-4.02;81.02;100157.16;5092412;28;20048;-71
2021/01/19 00:07:42;;;;;;;59.70;25.13;;;;;;;-4.06;81.41;100158.59;5093571;28;20051;-71
2021/01/19 00:10:11;;;;;;;63.47;26.35;;;;;;;-4.05;81.70;100159.47;5093522;28;20127;-71
2021/01/19 00:12:40;;;;;;;59.47;25.25;;;;;;;-4.05;81.26;100156.97;5093519;28;20147;-71
2021/01/19 00:15:10;;;;;;;57.05;24.90;;;;;;;-4.00;81.30;100153.13;5093442;28;20067;-71
2021/01/19 00:17:37;;;;;;;58.70;24.95;;;;;;;-3.96;81.73;100155.06;5093451;28;20559;-71
2021/01/19 00:20:07;;;;;;;62.72;25.88;;;;;;;-3.96;81.67;100148.44;5093749;28;20048;-71
2021/01/19 00:22:35;;;;;;;64.28;27.15;;;;;;;-3.94;81.45;100151.03;5093403;28;20040;-71
2021/01/19 00:25:04;;;;;;;63.20;29.13;;;;;;;-3.90;81.97;100145.47;5093444;28;20102;-71
2021/01/19 00:27:31;;;;;;;61.97;27.33;;;;;;;-3.97;81.52;100138.38;5097422;28;20051;-71
2021/01/19 00:29:59;;;;;;;59.03;24.77;;;;;;;-4.01;81.67;100152.28;5097443;28;20052;-71
2021/01/19 00:32:29;;;;;;;47.42;25.15;;;;;;;-4.05;81.46;100142.03;5097352;28;20051;-71
2021/01/19 00:34:56;;;;;;;54.78;23.90;;;;;;;-4.02;81.66;100139.69;5097268;28;20402;-71
2021/01/19 00:37:24;;;;;;;49.95;22.52;;;;;;;-3.98;81.50;100137.50;5097235;28;20055;-71
2021/01/19 00:39:52;;;;;;;55.25;22.65;;;;;;;-3.99;81.73;100134.91;5097176;28;20056;-71
2021/01/19 00:42:19;;;;;;;51.22;22.08;;;;;;;-4.02;82.08;100132.22;5097199;28;20105;-71
2021/01/19 00:44:48;;;;;;;52.15;23.58;;;;;;;-3.97;81.99;100133.38;5097062;28;20040;-71
2021/01/19 00:47:16;;;;;;;54.28;23.75;;;;;;;-3.97;81.49;100131.75;5097099;28;20052;-71
2021/01/19 00:49:45;;;;;;;55.17;24.55;;;;;;;-3.96;81.79;100127.63;5095844;28;20497;-71
2021/01/19 00:52:12;;;;;;;61.92;23.40;;;;;;;-3.92;81.57;100137.91;5096005;28;20064;-71
2021/01/19 00:54:40;;;;;;;55.85;23.17;;;;;;;-3.88;81.55;100133.94;5096832;28;20048;-71
2021/01/19 00:57:10;;;;;;;59.53;24.52;;;;;;;-3.85;81.82;100134.16;5112638;28;20078;-71
2021/01/19 00:59:40;;;;;;;53.58;25.15;;;;;;;-3.83;81.36;100132.63;5095678;28;20050;-71
2021/01/19 01:02:09;;;;;;;60.33;25.83;;;;;;;-3.83;81.94;100137.59;5096804;28;20048;-71
2021/01/19 01:04:37;;;;;;;63.47;26.05;;;;;;;-3.81;81.72;100136.94;5096725;28;20079;-71
2021/01/19 01:07:05;;;;;;;59.40;25.35;;;;;;;-3.83;81.66;100127.63;5097045;28;20068;-71
2021/01/19 01:09:37;;;;;;;55.33;24.33;;;;;;;-3.84;81.58;100128.41;5096611;28;20056;-71
2021/01/19 01:12:06;;;;;;;54.17;23.23;;;;;;;-3.87;81.80;100125.72;5096661;28;20041;-71
2021/01/19 01:14:34;;;;;;;58.50;23.97;;;;;;;-4.14;81.73;100070.88;5096533;28;20063;-71
2021/01/19 01:17:04;;;;;;;58.25;25.23;;;;;;;-3.84;81.84;100115.94;5096533;28;20036;-71
2021/01/19 01:19:31;;;;;;;59.00;25.35;;;;;;;-3.86;81.24;100117.50;5096480;28;20062;-71
2021/01/19 01:22:00;;;;;;;62.40;25.77;;;;;;;-3.86;81.55;100117.50;5096391;28;20066;-71
2021/01/19 01:24:29;;;;;;;56.33;24.70;;;;;;;-3.90;81.46;100106.44;5096368;28;20493;-71
2021/01/19 01:26:57;;;;;;;57.97;24.13;;;;;;;-3.93;81.76;100111.22;5096569;28;20127;-71
2021/01/19 01:29:25;;;;;;;52.90;23.55;;;;;;;-3.96;81.52;100110.19;5096291;28;20051;-71
2021/01/19 01:31:54;;;;;;;60.03;24.88;;;;;;;-3.96;81.94;100105.22;5096181;28;20051;-71
2021/01/19 01:34:22;;;;;;;53.75;24.52;;;;;;;-3.95;81.48;100106.91;5096155;28;20160;-72
2021/01/19 01:36:49;;;;;;;55.22;23.00;;;;;;;-3.93;81.60;100108.75;5094481;28;20116;-71
2021/01/19 01:39:17;;;;;;;53.85;24.90;;;;;;;-3.88;81.84;100106.53;5095903;28;20052;-71
2021/01/19 01:41:47;;;;;;;58.90;26.48;;;;;;;-3.89;81.57;100098.22;5095972;28;20052;-71
2021/01/19 01:44:14;;;;;;;48.83;20.00;;;;;;;-3.86;81.77;100100.03;5094861;28;20072;-71
2021/01/19 01:46:43;;;;;;;60.47;26.40;;;;;;;-3.83;81.82;100097.72;5095841;28;20273;-72
2021/01/19 01:49:12;;;;;;;57.75;23.90;;;;;;;-3.84;81.63;100096.00;5095881;28;20056;-71
2021/01/19 01:51:41;;;;;;;52.72;24.08;;;;;;;-3.81;81.47;100096.16;5095911;28;20497;-71
2021/01/19 01:54:09;;;;;;;60.28;24.90;;;;;;;-3.86;81.80;100097.53;5095756;28;20048;-71
2021/01/19 01:56:37;;;;;;;59.80;25.63;;;;;;;-3.89;81.89;100102.34;5094308;28;20071;-72
2021/01/19 01:59:06;;;;;;;55.53;24.42;;;;;;;-3.94;81.93;100094.56;5095691;28;20075;-72
2021/01/19 02:01:34;;;;;;;60.45;26.05;;;;;;;-3.93;82.35;100090.44;5095645;28;20126;-72
2021/01/19 02:04:02;;;;;;;57.63;24.15;;;;;;;-3.94;82.01;100088.72;5095593;28;20576;-72
2021/01/19 02:06:30;;;;;;;56.67;24.10;;;;;;;-3.95;82.27;100089.47;5095593;28;20048;-72
2021/01/19 02:09:08;;;;;;;59.40;25.25;;;;;;;-3.96;82.17;100083.66;5095753;28;20135;-72
2021/01/19 02:11:50;;;;;;;57.85;26.10;;;;;;;-3.97;82.13;100091.88;5095481;28;20577;-72
2021/01/19 02:14:26;;;;;;;56.63;24.67;;;;;;;-3.94;82.15;100081.25;5094134;28;20521;-72
2021/01/19 02:17:10;;;;;;;61.90;24.33;;;;;;;-3.95;81.92;100086.97;5095305;28;20071;-72
2021/01/19 02:20:11;;;;;;;60.95;23.85;;;;;;;-3.96;82.46;100085.28;5095335;28;20056;-72
2021/01/19 02:22:58;;;;;;;58.35;26.25;;;;;;;-4.00;82.11;100069.25;5095291;28;20040;-72
2021/01/19 02:25:34;;;;;;;59.50;23.27;;;;;;;-3.89;82.48;100082.38;5095118;28;20044;-72
2021/01/19 02:28:19;;;;;;;57.03;24.15;;;;;;;-3.90;82.61;100080.66;5095222;28;20097;-72
2021/01/19 02:31:08;;;;;;;63.55;25.17;;;;;;;-3.91;82.52;100083.94;5093927;28;20082;-72
2021/01/19 02:33:44;;;;;;;58.50;24.00;;;;;;;-3.91;82.38;100083.94;5095398;28;20494;-72
2021/01/19 02:36:19;;;;;;;54.72;25.02;;;;;;;-3.91;82.63;100083.94;5094918;28;20044;-71
2021/01/19 02:38:56;;;;;;;58.45;24.05;;;;;;;-3.88;82.74;100084.97;5095019;28;20102;-72
2021/01/19 02:41:24;;;;;;;57.20;23.35;;;;;;;-3.87;82.43;100078.34;5094844;28;20400;-72
2021/01/19 02:44:00;;;;;;;53.08;23.92;;;;;;;-3.87;82.13;100075.88;5094871;28;20109;-72
2021/01/19 02:46:29;;;;;;;55.28;24.88;;;;;;;-3.84;82.11;100079.41;5095098;28;20482;-72
2021/01/19 02:48:57;;;;;;;59.83;25.45;;;;;;;-3.83;82.38;100067.81;5093916;28;20156;-72
2021/01/19 02:51:25;;;;;;;54.88;23.67;;;;;;;-3.81;82.55;100066.25;5094630;28;20082;-71
2021/01/19 02:53:54;;;;;;;59.40;25.13;;;;;;;-3.79;82.42;100064.75;5094674;28;20139;-72
2021/01/19 02:56:34;;;;;;;58.45;24.70;;;;;;;-3.94;82.36;100039.75;5094303;28;20052;-72
2021/01/19 02:59:11;;;;;;;60.40;23.55;;;;;;;-3.78;82.44;100071.44;5094607;28;20048;-72
2021/01/19 03:01:47;;;;;;;51.00;23.20;;;;;;;-3.86;82.31;100065.16;5094500;28;20044;-72
2021/01/19 03:04:19;;;;;;;55.25;23.13;;;;;;;-3.90;82.20;100065.69;5094830;28;20056;-72
2021/01/19 03:06:51;;;;;;;55.08;23.27;;;;;;;-3.88;82.46;100061.66;5094340;28;20044;-72
2021/01/19 03:09:19;;;;;;;52.35;23.73;;;;;;;-3.84;82.43;100058.63;5094426;28;20499;-71
2021/01/19 03:11:49;;;;;;;41.15;17.95;;;;;;;-3.87;82.57;100055.94;5094351;28;20055;-72
2021/01/19 03:14:18;;;;;;;56.53;23.23;;;;;;;-3.87;82.49;100050.94;5094353;28;20113;-72
2021/01/19 03:16:46;;;;;;;55.85;23.08;;;;;;;-3.87;82.68;100055.94;5094102;28;20068;-72
2021/01/19 03:19:19;;;;;;;54.95;23.10;;;;;;;-3.89;82.64;100059.97;5094196;28;20402;-72
2021/01/19 03:21:46;;;;;;;46.65;22.58;;;;;;;-3.89;82.83;100052.47;5094209;28;20056;-72
2021/01/19 03:24:14;;;;;;;48.05;22.20;;;;;;;-3.89;82.79;100062.44;5094076;28;20052;-72
2021/01/19 03:26:43;;;;;;;56.63;23.60;;;;;;;-3.90;82.71;100060.72;5094083;28;20094;-72
2021/01/19 03:29:10;;;;;;;58.17;22.27;;;;;;;-3.89;82.58;100050.88;5093997;28;20067;-72
2021/01/19 03:31:38;;;;;;;57.25;24.02;;;;;;;-3.86;82.70;100051.03;5093953;28;20502;-72
2021/01/19 03:34:06;;;;;;;54.60;24.67;;;;;;;-3.85;82.74;100049.41;5093955;28;20102;-72
2021/01/19 03:36:35;;;;;;;59.15;24.77;;;;;;;-3.85;82.62;100054.38;5093869;28;20055;-72
2021/01/19 03:39:03;;;;;;;55.75;24.88;;;;;;;-3.85;82.78;100044.41;5093866;28;20064;-72
2021/01/19 03:41:31;;;;;;;44.60;19.58;;;;;;;-3.81;82.94;100043.81;5092978;28;20131;-72
2021/01/19 03:43:59;;;;;;;58.78;24.55;;;;;;;-3.81;83.05;100046.31;5093775;28;20126;-72
2021/01/19 03:46:27;;;;;;;57.67;24.65;;;;;;;-3.80;82.80;100048.06;5093840;28;20044;-72
2021/01/19 03:48:55;;;;;;;54.63;25.02;;;;;;;-3.81;82.78;100042.19;5093683;28;20397;-72
2021/01/19 03:51:23;;;;;;;64.05;24.92;;;;;;;-3.85;82.71;100039.44;5094061;28;20074;-72
2021/01/19 03:53:52;;;;;;;59.90;25.13;;;;;;;-3.85;82.71;100039.44;5093699;28;20048;-72
2021/01/19 03:56:20;;;;;;;63.47;26.63;;;;;;;-3.86;82.82;100042.72;5093610;28;20105;-72
2021/01/19 03:58:48;;;;;;;62.88;27.00;;;;;;;-4.12;82.93;99991.25;5093675;28;20058;-72
2021/01/19 04:01:18;;;;;;;62.97;25.38;;;;;;;-3.83;82.68;100038.75;5098289;28;20040;-72
2021/01/19 04:03:46;;;;;;;62.05;25.45;;;;;;;-3.81;83.08;100036.34;5082665;28;20135;-72
2021/01/19 04:06:14;;;;;;;59.38;25.75;;;;;;;-3.84;82.96;100034.53;5100346;28;20054;-72
2021/01/19 04:08:41;;;;;;;66.50;26.50;;;;;;;-3.80;82.91;100040.56;5100397;28;20122;-72
2021/01/19 04:11:10;;;;;;;67.60;26.98;;;;;;;-3.77;82.85;100039.16;5099401;28;20052;-72
2021/01/19 04:13:38;;;;;;;64.68;28.27;;;;;;;-3.79;82.73;100035.66;5100357;28;20052;-71
2021/01/19 04:16:06;;;;;;;67.00;27.60;;;;;;;-3.79;83.11;100033.19;5100180;28;20040;-72
2021/01/19 04:18:33;;;;;;;64.93;25.35;;;;;;;-3.96;83.10;100005.53;5099298;28;20494;-72
2021/01/19 04:21:01;;;;;;;61.42;26.55;;;;;;;-3.84;82.89;100028.72;5100195;28;20130;-72
2021/01/19 04:23:30;;;;;;;61.75;27.65;;;;;;;-3.84;83.49;100036.19;5100209;28;20083;-72
2021/01/19 04:25:59;;;;;;;55.72;24.17;;;;;;;-3.83;83.28;100027.91;5100135;28;20067;-72
2021/01/19 04:28:27;;;;;;;59.00;25.50;;;;;;;-3.85;83.26;100025.34;5100149;28;20132;-72
2021/01/19 04:30:55;;;;;;;52.03;20.48;;;;;;;-3.77;82.83;100029.19;5099013;28;20097;-72
2021/01/19 04:33:23;;;;;;;58.47;23.92;;;;;;;-3.74;83.38;100028.50;5100047;28;20063;-72
2021/01/19 04:35:51;;;;;;;59.47;24.92;;;;;;;-3.87;82.79;100011.06;5100063;28;20048;-72
2021/01/19 04:38:19;;;;;;;56.97;23.95;;;;;;;-3.73;83.21;100027.72;5100070;28;20130;-72
2021/01/19 04:40:47;;;;;;;63.50;26.92;;;;;;;-3.71;83.09;100037.00;5100030;28;20056;-72
2021/01/19 04:43:16;;;;;;;63.17;28.35;;;;;;;-3.77;82.76;100018.34;5099948;28;20056;-72
2021/01/19 04:45:48;;;;;;;61.75;27.42;;;;;;;-3.68;83.23;100028.84;5099974;28;20123;-72
2021/01/19 04:48:19;;;;;;;58.10;26.67;;;;;;;-3.68;83.06;100032.22;5099960;28;20048;-72
2021/01/19 04:50:46;;;;;;;47.35;20.48;;;;;;;-3.70;83.37;100026.28;5099927;28;20081;-72
2021/01/19 04:53:18;;;;;;;66.43;26.63;;;;;;;-3.68;83.20;100024.75;5099821;28;20099;-72
2021/01/19 04:55:53;;;;;;;64.68;26.02;;;;;;;-3.65;83.06;100024.06;5099628;28;20122;-72
2021/01/19 04:58:23;;;;;;;64.15;26.00;;;;;;;-3.64;82.77;100026.63;5099844;28;20425;-72
2021/01/19 05:01:05;;;;;;;64.00;27.17;;;;;;;-3.67;82.73;100031.44;5099866;28;20052;-72
2021/01/19 05:03:39;;;;;;;71.60;26.63;;;;;;;-3.67;83.07;100030.59;5099782;28;20051;-71
2021/01/19 05:06:15;;;;;;;65.53;28.75;;;;;;;-3.68;82.81;100029.72;5100169;28;20094;-71
2021/01/19 05:08:58;;;;;;;67.15;26.83;;;;;;;-3.72;82.90;100021.97;5099790;28;20485;-71
2021/01/19 05:11:30;;;;;;;65.93;26.95;;;;;;;-3.83;82.80;100007.97;5099391;28;20044;-71
2021/01/19 05:14:01;;;;;;;59.15;25.77;;;;;;;-3.71;82.78;100028.66;5095864;28;20060;-71
2021/01/19 05:16:32;;;;;;;70.88;26.83;;;;;;;-3.71;82.90;100026.16;5096550;28;20044;-71
2021/01/19 05:19:02;;;;;;;68.63;26.67;;;;;;;-3.68;83.09;100018.88;5096532;28;20044;-71
2021/01/19 05:21:30;;;;;;;63.40;25.35;;;;;;;-3.86;82.57;99997.84;5096518;28;20055;-71
2021/01/19 05:23:59;;;;;;;59.88;26.38;;;;;;;-3.71;82.77;100028.66;5096455;28;20060;-70
2021/01/19 05:26:27;;;;;;;60.90;26.05;;;;;;;-3.73;82.98;100030.22;5096574;28;20420;-72
2021/01/19 05:28:55;;;;;;;59.38;26.58;;;;;;;-3.74;83.29;100029.34;5096322;28;20050;-72
2021/01/19 05:31:25;;;;;;;61.50;28.38;;;;;;;-3.70;82.74;100027.91;5096177;28;20060;-72
2021/01/19 05:34:03;;;;;;;70.60;26.98;;;;;;;-3.80;82.90;100013.16;5096255;28;20131;-72
2021/01/19 05:36:35;;;;;;;68.85;28.17;;;;;;;-3.67;83.40;100030.59;5096083;28;20394;-72
2021/01/19 05:39:06;;;;;;;72.20;29.20;;;;;;;-3.66;83.10;100017.34;5096162;28;20078;-72
2021/01/19 05:41:36;;;;;;;61.00;26.05;;;;;;;-3.64;82.83;100031.63;5096006;28;20063;-72
2021/01/19 05:44:15;;;;;;;71.32;27.63;;;;;;;-3.83;83.41;99988.03;5096033;28;20047;-71
2021/01/19 05:46:48;;;;;;;65.07;29.10;;;;;;;-3.58;83.20;100023.66;5095927;28;20059;-70
2021/01/19 05:49:22;;;;;;;65.93;28.20;;;;;;;-3.55;83.12;100028.84;5095919;28;20143;-71
2021/01/19 05:51:56;;;;;;;69.55;28.45;;;;;;;-3.55;82.93;100037.16;5096137;28;20052;-72
2021/01/19 05:54:27;;;;;;;59.28;25.13;;;;;;;-3.61;83.31;100025.97;5096140;28;20097;-72
2021/01/19 05:57:03;;;;;;;59.03;25.88;;;;;;;-3.59;83.56;100029.41;5095436;28;20509;-72
2021/01/19 05:59:38;;;;;;;60.17;26.65;;;;;;;-3.63;82.88;100027.50;5095656;28;20043;-72
2021/01/19 06:02:09;;;;;;;62.60;27.73;;;;;;;-3.80;83.26;99998.19;5095783;28;20079;-72
2021/01/19 06:04:40;;;;;;;56.65;26.05;;;;;;;-3.55;83.23;100031.34;5095648;28;20063;-72
2021/01/19 06:07:09;;;;;;;70.43;28.70;;;;;;;-3.53;82.82;100023.13;5095835;28;20037;-72
2021/01/19 06:09:40;;;;;;;75.40;31.38;;;;;;;-3.50;83.04;100025.81;5095533;28;20048;-72
2021/01/19 06:12:08;;;;;;;72.35;28.48;;;;;;;-3.48;82.88;100030.94;5095426;28;20101;-72
2021/01/19 06:14:36;;;;;;;66.43;28.10;;;;;;;-3.49;83.23;100027.56;5095425;28;20058;-72
2021/01/19 06:17:08;;;;;;;63.75;26.88;;;;;;;-3.48;82.88;100028.44;5095239;28;20444;-72
2021/01/19 06:19:41;;;;;;;59.75;26.85;;;;;;;-3.50;82.69;100033.31;5095329;28;20493;-72
2021/01/19 06:22:11;;;;;;;66.75;27.40;;;;;;;-3.47;83.26;100027.66;5095294;28;20520;-72
2021/01/19 06:24:42;;;;;;;62.05;26.80;;;;;;;-3.45;83.25;100028.59;5094027;28;20068;-72
2021/01/19 06:27:12;;;;;;;69.72;29.08;;;;;;;-3.45;83.29;100018.63;5095660;28;20040;-72
2021/01/19 06:29:40;;;;;;;61.15;27.75;;;;;;;-3.45;83.32;100017.00;5095111;28;20040;-72
2021/01/19 06:32:08;;;;;;;76.47;32.40;;;;;;;-3.43;83.04;100017.06;5095062;28;20486;-72
2021/01/19 06:34:39;;;;;;;65.10;27.08;;;;;;;-3.46;82.86;100014.41;5095284;28;20055;-72
2021/01/19 06:37:09;;;;;;;61.92;27.33;;;;;;;-3.45;83.20;100023.59;5094919;28;20048;-72
2021/01/19 06:39:39;;;;;;;70.78;29.63;;;;;;;-3.40;82.81;100022.25;5094910;28;20056;-72
2021/01/19 06:42:12;;;;;;;64.35;28.73;;;;;;;-3.39;82.74;100028.97;5094873;28;20068;-72
2021/01/19 06:44:44;;;;;;;62.13;27.05;;;;;;;-3.42;82.94;100029.66;5094815;28;20051;-72
2021/01/19 06:47:13;;;;;;;65.05;28.38;;;;;;;-3.41;83.27;100023.03;5095115;28;20420;-72
2021/01/19 06:49:56;;;;;;;66.15;27.92;;;;;;;-3.51;82.55;100003.31;5094716;28;20486;-72
2021/01/19 06:52:38;;;;;;;64.60;27.98;;;;;;;-3.33;83.03;100024.34;5094631;28;20056;-72
2021/01/19 06:55:21;;;;;;;66.55;27.67;;;;;;;-3.31;83.19;100017.78;5094560;28;20052;-72
2021/01/19 06:58:18;;;;;;;55.67;26.35;;;;;;;-3.26;83.17;100026.41;5094867;28;20127;-72
2021/01/19 07:00:48;;;;;;;63.15;26.70;;;;;;;-3.25;83.21;100018.16;5094573;28;20047;-72
2021/01/19 07:03:21;;;;;;;60.65;26.90;;;;;;;-3.40;82.75;99992.31;5094459;28;20052;-72
2021/01/19 07:06:01;;;;;;;63.40;26.55;;;;;;;-3.22;82.47;100023.34;5094447;28;20041;-72
2021/01/19 07:09:02;;;;;;;64.50;28.90;;;;;;;-3.23;82.57;100011.63;5094367;28;20450;-72
2021/01/19 07:12:02;;;;;;;65.88;26.98;;;;;;;-3.11;82.99;100017.34;5094401;28;20040;-72
2021/01/19 07:14:44;;;;;;;61.67;27.75;;;;;;;-3.08;82.35;100002.53;5089438;28;20052;-71
2021/01/19 07:17:17;;;;;;;60.63;25.88;;;;;;;-2.99;82.54;100012.19;5094087;28;20050;-71
2021/01/19 07:19:50;;;;;;;69.32;28.83;;;;;;;-2.94;82.94;100009.19;5092914;28;20044;-71
2021/01/19 07:22:56;;;;;;;64.63;26.70;;;;;;;-2.89;82.36;100005.31;5094174;28;20076;-71
2021/01/19 07:25:26;;;;;;;61.20;26.23;;;;;;;-2.92;82.25;99995.16;5094069;28;20516;-71
2021/01/19 07:27:55;;;;;;;56.58;25.35;;;;;;;-2.79;82.00;100007.56;5094040;28;20058;-71
2021/01/19 07:30:24;;;;;;;60.83;25.98;;;;;;;-2.73;82.05;100002.91;5093941;28;20044;-71
2021/01/19 07:32:54;;;;;;;59.13;25.58;;;;;;;-2.61;81.85;100011.84;5093993;28;20155;-71
2021/01/19 07:35:24;;;;;;;57.85;25.27;;;;;;;-2.94;81.85;99946.78;5093380;28;20104;-71
2021/01/19 07:38:09;;;;;;;57.47;25.65;;;;;;;-2.49;82.24;100012.53;5093950;28;20131;-71
2021/01/19 07:40:48;;;;;;;61.40;25.90;;;;;;;-2.45;81.61;100010.31;5093793;28;20044;-71
2021/01/19 07:43:17;;;;;;;56.13;25.08;;;;;;;-2.40;81.38;100013.06;5093801;28;20052;-71
2021/01/19 07:45:52;;;;;;;;;;;;;;;-2.35;81.65;100006.69;5094415;28;20105;-71
2021/01/19 07:48:30;;;;;;;56.35;24.98;;;;;;;-2.39;80.99;100009.78;5093819;28;20297;-71
2021/01/19 07:51:12;;;;;;;56.03;25.23;;;;;;;-2.42;81.09;100012.97;5093761;28;20059;-71
2021/01/19 07:53:48;;;;;;;62.20;24.70;;;;;;;-2.40;80.93;100018.06;5093655;28;20067;-73
2021/01/19 07:56:23;;;;;;;58.25;25.15;;;;;;;-2.42;80.30;100014.59;5093343;28;20059;-72
2021/01/19 07:58:52;;;;;;;56.13;22.95;;;;;;;-2.39;80.54;100024.78;5093691;28;20040;-72
2021/01/19 08:01:24;;;;;;;66.50;27.17;;;;;;;-2.31;80.54;100024.44;5093517;28;20063;-72
2021/01/19 08:03:53;;;;;;;55.10;24.83;;;;;;;-2.21;80.51;100025.81;5093589;28;20051;-72
2021/01/19 08:06:32;;;;;;;55.03;25.88;;;;;;;-2.12;79.99;100022.16;5093586;28;20062;-71
2021/01/19 08:09:10;;;;;;;56.50;23.70;;;;;;;-2.11;79.80;100023.00;5093582;28;20040;-72
2021/01/19 08:11:41;;;;;;;51.40;22.58;;;;;;;-2.01;80.03;100025.22;5093546;28;20040;-71
2021/01/19 08:14:15;;;;;;;51.97;24.35;;;;;;;-2.06;79.97;100016.63;5093490;28;20053;-74
2021/01/19 08:16:47;;;;;;;59.03;25.73;;;;;;;-2.13;79.41;100015.44;5093041;28;20058;-72
2021/01/19 08:19:16;;;;;;;54.50;23.63;;;;;;;-2.24;79.70;100013.13;5092352;28;20047;-72
2021/01/19 08:21:49;;;;;;;56.63;26.30;;;;;;;-2.29;79.63;100014.50;5093359;28;20056;-72
2021/01/19 08:24:20;;;;;;;54.15;23.90;;;;;;;-2.30;79.96;100005.28;5093735;28;20044;-71
2021/01/19 08:26:50;;;;;;;61.15;25.92;;;;;;;-2.28;79.24;100008.75;5093300;28;20089;-71
2021/01/19 08:29:30;;;;;;;55.72;24.77;;;;;;;-2.21;79.32;100008.31;5090670;28;20044;-70
2021/01/19 08:31:59;;;;;;;56.30;25.63;;;;;;;-2.10;79.04;100009.75;5081904;28;20131;-70
2021/01/19 08:34:29;;;;;;;54.88;25.27;;;;;;;-1.98;79.64;100005.41;5093224;28;20044;-71
2021/01/19 08:37:00;;;;;;;59.75;27.23;;;;;;;-1.93;78.92;100008.13;5093151;28;20480;-71
2021/01/19 08:39:29;;;;;;;65.82;26.38;;;;;;;-1.86;79.00;100006.06;5093210;28;20055;-71
2021/01/19 08:41:57;;;;;;;51.65;26.63;;;;;;;-3.04;78.36;99797.28;5076487;28;20517;-71
2021/01/19 08:44:34;;;;;;;61.60;26.42;;;;;;;-1.88;78.77;100009.25;5071896;28;20052;-70
2021/01/19 08:47:02;;;;;;;55.30;25.50;;;;;;;-1.88;78.57;100012.63;5073004;28;20075;-70
2021/01/19 08:49:34;;;;;;;60.63;26.65;;;;;;;-2.16;78.34;99974.44;5076552;28;20056;-71
2021/01/19 08:52:03;;;;;;;61.70;26.42;;;;;;;-1.98;78.67;100000.41;5076651;28;20094;-70
2021/01/19 08:54:32;;;;;;;61.22;26.80;;;;;;;-1.96;78.66;99998.84;5076559;28;20094;-71
2021/01/19 08:57:00;;;;;;;61.00;26.80;;;;;;;-1.91;78.50;99999.06;5076366;28;20048;-71
2021/01/19 08:59:50;;;;;;;66.13;27.98;;;;;;;-1.82;78.90;99997.91;5076596;28;20048;-70
2021/01/19 09:02:18;;;;;;;64.40;27.77;;;;;;;-1.74;78.61;100000.84;5076601;28;20052;-70
2021/01/19 09:04:47;;;;;;;62.55;27.38;;;;;;;-1.71;78.53;100006.88;5076381;28;20060;-70
2021/01/19 09:07:15;;;;;;;56.67;24.73;;;;;;;-1.61;78.92;100004.03;5079508;28;20044;-71
2021/01/19 09:09:47;;;;;;;64.22;26.15;;;;;;;-1.59;78.33;100002.50;5085158;28;20056;-70
2021/01/19 09:12:16;;;;;;;55.10;25.98;;;;;;;-1.52;78.08;100004.53;5096515;28;20127;-70
2021/01/19 09:14:50;;;;;;;54.63;26.57;;;;;;;-1.39;78.04;99991.88;5096585;28;20122;-70
2021/01/19 09:17:25;;;;;;;59.65;27.42;;;;;;;-1.32;78.08;99989.69;5096666;28;20040;-70
2021/01/19 09:20:05;;;;;;;69.28;29.13;;;;;;;-1.21;77.74;99996.09;5096558;28;20117;-71
2021/01/19 09:22:33;;;;;;;;;;;;;;;-1.09;77.71;99990.06;5096901;27;20127;-71
2021/01/19 09:25:01;;;;;;;63.50;25.50;;;;;;;-1.01;77.27;99983.75;5095204;28;19958;-71
2021/01/19 09:27:30;;;;;;;57.13;24.90;;;;;;;-1.01;77.21;99990.44;5096247;28;20131;-70
2021/01/19 09:30:07;;;;;;;62.42;27.38;;;;;;;-0.85;77.37;99987.91;5096282;28;20135;-71
2021/01/19 09:32:39;;;;;;;68.25;29.30;;;;;;;-0.68;77.16;99982.06;5096204;28;20048;-71
2021/01/19 09:35:10;;;;;;;62.55;28.65;;;;;;;-0.58;76.51;99985.88;5096205;28;20440;-69
2021/01/19 09:37:39;;;;;;;62.10;26.20;;;;;;;-0.46;76.09;99978.94;5096104;28;20044;-71
2021/01/19 09:40:09;;;;;;;59.42;27.55;;;;;;;-0.47;75.64;99979.72;5096018;28;20052;-70
2021/01/19 09:42:39;;;;;;;59.45;26.63;;;;;;;-0.74;75.29;99954.19;5096054;28;20043;-70
2021/01/19 09:45:10;;;;;;;62.60;27.98;;;;;;;-0.68;75.96;99987.06;5095932;28;20055;-71
2021/01/19 09:47:42;;;;;;;61.97;25.80;;;;;;;-0.67;75.65;99978.75;5095999;28;20056;-70
2021/01/19 09:50:12;;;;;;;55.80;24.15;;;;;;;-0.90;75.65;99974.28;5095817;28;20052;-71
2021/01/19 09:52:46;;;;;;;58.67;24.67;;;;;;;-1.19;75.79;99969.47;5095843;28;20082;-71
2021/01/19 09:55:17;;;;;;;60.75;28.02;;;;;;;-1.23;76.49;99968.47;5095746;28;20044;-71
2021/01/19 09:57:45;;;;;;;55.70;26.35;;;;;;;-1.09;76.48;99961.66;5095439;28;20048;-71
2021/01/19 10:00:13;;;;;;;61.28;27.38;;;;;;;-0.97;76.49;99957.25;5095355;28;20046;-71
2021/01/19 10:02:41;;;;;;;64.20;27.73;;;;;;;-0.78;76.30;99957.34;5095675;28;20420;-71
2021/01/19 10:05:10;;;;;;;55.97;24.83;;;;;;;-0.73;76.40;99950.91;5095497;28;20512;-71
2021/01/19 10:07:37;;;;;;;57.58;26.67;;;;;;;-0.95;76.70;99953.16;5094933;28;20036;-71
2021/01/19 10:10:11;;;;;;;61.42;25.55;;;;;;;-0.98;76.58;99950.50;5095227;28;20048;-71
2021/01/19 10:12:40;;;;;;;57.45;27.13;;;;;;;-0.97;76.87;99963.13;5094186;28;20047;-71
2021/01/19 10:15:10;;;;;;;58.55;25.90;;;;;;;-0.75;76.91;99960.00;5095203;28;20055;-71
2021/01/19 10:17:38;;;;;;;58.78;25.10;;;;;;;-0.70;76.79;99963.59;5094883;28;20466;-71
2021/01/19 10:20:08;;;;;;;57.03;26.42;;;;;;;-0.67;76.90;99959.56;5095189;28;20134;-70
2021/01/19 10:22:38;;;;;;;68.82;28.00;;;;;;;-0.66;76.91;99960.44;5095018;28;20406;-70
2021/01/19 10:25:08;;;;;;;67.55;29.63;;;;;;;-0.46;77.04;99954.75;5095186;28;20494;-70
2021/01/19 10:27:45;;;;;;;67.75;30.17;;;;;;;-0.28;77.09;99955.56;5094965;28;20040;-70
2021/01/19 10:30:15;;;;;;;72.80;31.00;;;;;;;-0.22;76.91;99950.00;5095220;28;20136;-70
2021/01/19 10:32:50;;;;;;;81.57;32.70;;;;;;;-1.38;76.69;99752.47;5095068;28;20548;-70
2021/01/19 10:35:28;;;;;;;69.25;29.67;;;;;;;-0.45;76.58;99925.50;5094997;28;20047;-70
2021/01/19 10:37:59;;;;;;;69.68;29.63;;;;;;;-0.47;76.46;99942.97;5094825;28;20043;-70
2021/01/19 10:40:30;;;;;;;69.22;31.35;;;;;;;-0.44;76.51;99935.59;5094718;28;20115;-70
2021/01/19 10:43:01;;;;;;;66.60;30.48;;;;;;;-0.38;76.61;99928.34;5094770;28;20058;-70
2021/01/19 10:45:30;;;;;;;67.28;28.75;;;;;;;-0.39;76.80;99924.16;5094696;28;20083;-70
2021/01/19 10:48:01;;;;;;;58.72;29.25;;;;;;;-0.40;76.32;99919.91;5093897;28;20040;-71
2021/01/19 10:50:31;;;;;;;61.97;29.52;;;;;;;-0.45;76.55;99921.34;5093772;28;20097;-70
2021/01/19 10:53:00;;;;;;;65.20;30.65;;;;;;;-0.43;76.37;99914.75;5094391;28;20052;-71
2021/01/19 10:55:33;;;;;;;68.28;28.65;;;;;;;-0.33;76.03;99911.88;5094752;28;20419;-71
2021/01/19 10:58:03;;;;;;;71.32;32.30;;;;;;;-0.43;76.01;99904.72;5094451;28;20048;-70
2021/01/19 11:00:32;;;;;;;69.65;30.85;;;;;;;-0.38;76.43;99898.28;5094866;28;20048;-71
2021/01/19 11:03:01;;;;;;;69.20;29.67;;;;;;;-0.30;76.41;99894.47;5094512;28;20466;-70
2021/01/19 11:05:29;;;;;;;51.38;23.38;;;;;;;-0.93;75.91;99813.84;5093348;28;20128;-70
2021/01/19 11:07:57;;;;;;;59.95;28.15;;;;;;;-0.31;76.35;99885.22;5094400;28;20044;-71
2021/01/19 11:10:27;;;;;;;73.45;31.08;;;;;;;-0.14;75.88;99874.31;5093456;28;20070;-70
2021/01/19 11:12:56;;;;;;;64.00;29.88;;;;;;;-0.01;75.84;99876.56;5094362;28;20497;-71
2021/01/19 11:15:24;;;;;;;67.20;31.17;;;;;;;0.03;75.81;99877.56;5094273;28;20509;-71
2021/01/19 11:17:54;;;;;;;68.10;30.50;;;;;;;0.12;75.59;99867.09;5094198;28;20066;-71
2021/01/19 11:20:24;;;;;;;65.93;27.83;;;;;;;0.18;75.54;99872.34;5094172;28;20044;-70
2021/01/19 11:22:51;;;;;;;65.18;29.15;;;;;;;0.19;75.17;99859.03;5093961;28;20127;-70
2021/01/19 11:25:19;;;;;;;62.38;29.13;;;;;;;0.14;75.03;99858.81;5082592;28;20052;-69
2021/01/19 11:27:49;;;;;;;65.65;30.23;;;;;;;0.19;74.70;99838.94;5087030;28;20048;-70
2021/01/19 11:30:17;;;;;;;70.80;30.83;;;;;;;0.32;75.19;99846.19;5089770;28;20044;-71